createdAt,value
2018-06-04T00:00:34.323Z,93598.66
2018-06-04T00:03:02.023Z,93598.54
2018-06-04T00:05:29.676Z,93588.72
2018-06-04T00:07:57.436Z,93590.13
2018-06-04T00:10:25.115Z,93589.55
2018-06-04T00:12:52.803Z,93591.75
2018-06-04T00:15:20.483Z,93585.52
2018-06-04T00:17:48.184Z,93581.18
2018-06-04T00:20:15.898Z,93576.05
2018-06-04T00:22:43.587Z,93572.97
2018-06-04T00:25:11.303Z,93581.18
2018-06-04T00:27:38.988Z,93570.87
2018-06-04T00:30:06.676Z,93574.46
2018-06-04T00:32:34.407Z,93578.64
2018-06-04T00:35:02.053Z,93573.42
2018-06-04T00:37:29.725Z,93571.81
2018-06-04T00:39:57.390Z,93561.80
2018-06-04T00:42:25.111Z,93554.22
2018-06-04T00:44:52.780Z,93556.12
2018-06-04T00:47:20.479Z,93556.29
2018-06-04T00:49:48.145Z,93563.60
2018-06-04T00:52:15.819Z,93561.04
2018-06-04T00:54:43.471Z,93560.37
2018-06-04T00:57:11.131Z,93558.15
2018-06-04T00:59:38.834Z,93560.25
2018-06-04T01:02:06.503Z,93561.77
2018-06-04T01:04:34.243Z,93561.62
2018-06-04T01:07:01.968Z,93551.86
2018-06-04T01:09:29.695Z,93557.88
2018-06-04T01:11:57.420Z,93553.90
2018-06-04T01:14:25.093Z,93560.16
2018-06-04T01:16:52.780Z,93557.97
2018-06-04T01:19:20.471Z,93563.60
2018-06-04T01:21:48.130Z,93551.57
2018-06-04T01:24:15.871Z,93553.06
2018-06-04T01:26:43.584Z,93553.42
2018-06-04T01:29:11.266Z,93548.48
2018-06-04T01:31:38.948Z,93554.84
2018-06-04T01:34:06.603Z,93550.48
2018-06-04T01:36:34.362Z,93551.29
2018-06-04T01:39:02.012Z,93540.34
2018-06-04T01:41:30.038Z,93537.80
2018-06-04T01:43:57.723Z,93532.11
2018-06-04T01:46:25.448Z,93534.08
2018-06-04T01:48:53.118Z,93533.05
2018-06-04T01:51:20.806Z,93535.39
2018-06-04T01:53:48.418Z,93531.59
2018-06-04T01:56:16.110Z,93525.95
2018-06-04T01:58:43.876Z,93528.69
2018-06-04T02:01:11.548Z,93522.52
2018-06-04T02:03:39.261Z,93521.73
2018-06-04T02:06:06.913Z,93520.45
2018-06-04T02:08:34.631Z,93515.78
2018-06-04T02:11:02.362Z,93516.20
2018-06-04T02:13:30.034Z,93517.81
2018-06-04T02:15:57.775Z,93515.23
2018-06-04T02:18:25.447Z,93517.45
2018-06-04T02:20:53.094Z,93524.08
2018-06-04T02:23:20.765Z,93524.01
2018-06-04T02:25:48.432Z,93517.13
2018-06-04T02:28:16.432Z,93515.78
2018-06-04T02:30:44.514Z,93512.45
2018-06-04T02:33:12.418Z,93513.66
2018-06-04T02:35:40.163Z,93509.55
2018-06-04T02:38:07.872Z,93502.66
2018-06-04T02:40:35.577Z,93504.38
2018-06-04T02:43:03.265Z,93501.02
2018-06-04T02:45:30.983Z,93495.66
2018-06-04T02:47:58.666Z,93496.64
2018-06-04T02:50:26.337Z,93494.97
2018-06-04T02:52:54.039Z,93495.46
2018-06-04T02:55:21.718Z,93488.93
2018-06-04T02:57:49.406Z,93489.63
2018-06-04T03:00:17.115Z,93485.35
2018-06-04T03:02:44.776Z,93488.44
2018-06-04T03:05:12.463Z,93491.34
2018-06-04T03:07:40.345Z,93498.45
2018-06-04T03:10:08.044Z,93502.52
2018-06-04T03:12:35.688Z,93498.22
2018-06-04T03:15:03.431Z,93493.16
2018-06-04T03:17:31.206Z,93495.92
2018-06-04T03:19:58.922Z,93496.22
2018-06-04T03:22:26.531Z,93494.42
2018-06-04T03:24:54.203Z,93498.68
2018-06-04T03:27:21.847Z,93497.30
2018-06-04T03:29:49.525Z,93502.25
2018-06-04T03:32:17.235Z,93502.84
2018-06-04T03:34:44.906Z,93510.77
2018-06-04T03:37:12.615Z,93507.65
2018-06-04T03:39:40.271Z,93507.77
2018-06-04T03:42:07.938Z,93512.78
2018-06-04T03:44:35.663Z,93510.25
2018-06-04T03:47:03.434Z,93507.25
2018-06-04T03:49:31.119Z,93507.76
2018-06-04T03:51:58.786Z,93516.52
2018-06-04T03:54:26.446Z,93517.31
2018-06-04T03:56:54.114Z,93519.77
2018-06-04T03:59:21.752Z,93520.16
2018-06-04T04:01:49.477Z,93517.62
2018-06-04T04:04:17.107Z,93520.95
2018-06-04T04:06:44.775Z,93512.88
2018-06-04T04:09:12.494Z,93517.37
2018-06-04T04:11:40.213Z,93519.66
2018-06-04T04:14:07.923Z,93522.69
2018-06-04T04:16:37.836Z,93520.23
2018-06-04T04:19:07.818Z,93520.69
2018-06-04T04:21:39.535Z,93522.61
2018-06-04T04:24:24.183Z,93515.12
2018-06-04T04:26:51.867Z,93520.98
2018-06-04T04:29:20.091Z,93524.38
2018-06-04T04:31:47.771Z,93524.94
2018-06-04T04:34:15.481Z,93520.31
2018-06-04T04:36:43.151Z,93522.23
2018-06-04T04:39:10.798Z,93522.17
2018-06-04T04:41:38.482Z,93521.42
2018-06-04T04:44:06.186Z,93515.23
2018-06-04T04:46:33.882Z,93514.33
2018-06-04T04:49:01.623Z,93503.09
2018-06-04T04:51:29.320Z,93516.55
2018-06-04T04:53:57.056Z,93514.28
2018-06-04T04:56:24.745Z,93512.61
2018-06-04T04:58:52.504Z,93509.69
2018-06-04T05:01:20.224Z,93512.16
2018-06-04T05:03:47.970Z,93513.37
2018-06-04T05:06:15.630Z,93507.84
2018-06-04T05:08:43.306Z,93509.85
2018-06-04T05:11:10.998Z,93508.24
2018-06-04T05:13:38.639Z,93511.50
2018-06-04T05:16:06.344Z,93503.45
2018-06-04T05:18:34.065Z,93513.03
2018-06-04T05:21:01.744Z,93504.78
2018-06-04T05:23:29.432Z,93505.09
2018-06-04T05:25:57.117Z,93501.55
2018-06-04T05:28:24.780Z,93501.22
2018-06-04T05:30:52.458Z,93503.34
2018-06-04T05:33:20.167Z,93498.33
2018-06-04T05:35:48.610Z,93498.66
2018-06-04T05:38:21.864Z,93503.09
2018-06-04T05:41:14.071Z,93491.27
2018-06-04T05:43:55.544Z,93495.55
2018-06-04T05:46:41.077Z,93493.63
2018-06-04T05:55:04.409Z,93490.55
2018-06-04T06:00:44.583Z,93486.26
2018-06-04T06:04:52.053Z,93483.41
2018-06-04T06:07:19.718Z,93472.28
2018-06-04T06:09:48.342Z,93469.33
2018-06-04T06:12:23.123Z,93464.77
2018-06-04T06:15:09.271Z,93468.19
2018-06-04T06:17:42.892Z,93465.48
2018-06-04T06:25:30.711Z,93459.89
2018-06-04T06:28:12.340Z,93462.08
2018-06-04T06:31:04.914Z,93465.95
2018-06-04T06:34:33.850Z,93456.43
2018-06-04T06:37:17.911Z,93450.44
2018-06-04T06:40:12.031Z,93442.81
2018-06-04T06:42:48.614Z,93442.86
2018-06-04T06:45:16.300Z,93444.16
2018-06-04T06:47:46.627Z,93442.55
2018-06-04T06:50:14.361Z,93447.66
2018-06-04T06:52:42.023Z,93446.02
2018-06-04T06:55:09.721Z,93441.98
2018-06-04T06:57:37.383Z,93441.92
2018-06-04T07:00:05.123Z,93441.45
2018-06-04T07:02:32.838Z,93440.42
2018-06-04T07:05:00.535Z,93432.14
2018-06-04T07:07:28.200Z,93446.66
2018-06-04T07:09:55.855Z,93441.95
2018-06-04T07:12:23.550Z,93439.59
2018-06-04T07:14:51.227Z,93443.79
2018-06-04T07:17:18.970Z,93442.89
2018-06-04T07:19:46.626Z,93441.65
2018-06-04T07:22:14.308Z,93432.36
2018-06-04T07:24:42.010Z,93429.56
2018-06-04T07:27:09.706Z,93433.72
2018-06-04T07:29:37.421Z,93434.52
2018-06-04T07:32:05.136Z,93442.18
2018-06-04T07:34:32.846Z,93438.03
2018-06-04T07:37:00.720Z,93436.44
2018-06-04T07:39:28.405Z,93431.37
2018-06-04T07:41:56.101Z,93432.87
2018-06-04T07:44:23.965Z,93428.25
2018-06-04T07:46:51.626Z,93427.14
2018-06-04T07:49:19.285Z,93428.81
2018-06-04T07:51:47.033Z,93429.60
2018-06-04T07:54:14.755Z,93427.67
2018-06-04T07:56:42.466Z,93432.30
2018-06-04T07:59:10.124Z,93426.75
2018-06-04T08:01:37.841Z,93431.86
2018-06-04T08:04:05.559Z,93425.63
2018-06-04T08:06:33.304Z,93422.37
2018-06-04T08:09:01.034Z,93419.27
2018-06-04T08:11:28.779Z,93426.00
2018-06-04T08:13:56.479Z,93417.09
2018-06-04T08:16:24.199Z,93423.97
2018-06-04T08:18:51.870Z,93422.69
2018-06-04T08:21:19.627Z,93411.77
2018-06-04T08:23:47.343Z,93411.73
2018-06-04T08:26:15.104Z,93409.49
2018-06-04T08:28:42.793Z,93399.80
2018-06-04T08:31:11.030Z,93408.34
2018-06-04T08:33:38.791Z,93401.14
2018-06-04T08:36:06.447Z,93406.16
2018-06-04T08:38:34.166Z,93404.28
2018-06-04T08:41:01.871Z,93404.53
2018-06-04T08:43:29.549Z,93410.10
2018-06-04T08:45:57.383Z,93413.41
2018-06-04T08:48:25.047Z,93420.41
2018-06-04T08:50:52.783Z,93413.09
2018-06-04T08:53:20.502Z,93416.90
2018-06-04T08:55:48.198Z,93414.27
2018-06-04T08:58:15.894Z,93408.05
2018-06-04T09:00:43.585Z,93408.80
2018-06-04T09:03:11.291Z,93413.36
2018-06-04T09:05:38.977Z,93409.94
2018-06-04T09:08:06.718Z,93402.98
2018-06-04T09:10:34.425Z,93405.72
2018-06-04T09:13:02.181Z,93410.19
2018-06-04T09:15:29.900Z,93405.69
2018-06-04T09:17:57.607Z,93408.50
2018-06-04T09:20:25.617Z,93408.83
2018-06-04T09:22:53.278Z,93405.41
2018-06-04T09:25:20.978Z,93405.16
2018-06-04T09:27:48.655Z,93404.12
2018-06-04T09:30:16.368Z,93404.08
2018-06-04T09:32:44.133Z,93398.26
2018-06-04T09:35:11.872Z,93398.95
2018-06-04T09:37:39.643Z,93400.30
2018-06-04T09:40:07.363Z,93393.72
2018-06-04T09:42:35.052Z,93397.55
2018-06-04T09:45:02.860Z,93392.30
2018-06-04T09:47:30.531Z,93404.84
2018-06-04T09:49:58.288Z,93396.14
2018-06-04T09:52:25.980Z,93397.28
2018-06-04T09:54:53.697Z,93393.97
2018-06-04T09:57:21.462Z,93384.58
2018-06-04T09:59:49.120Z,93385.87
2018-06-04T10:02:16.803Z,93400.56
2018-06-04T10:04:44.531Z,93381.75
2018-06-04T10:07:12.199Z,93389.69
2018-06-04T10:09:39.955Z,93389.67
2018-06-04T10:12:07.647Z,93376.33
2018-06-04T10:14:35.342Z,93383.10
2018-06-04T10:17:03.095Z,93383.34
2018-06-04T10:19:30.807Z,93372.23
2018-06-04T10:21:58.521Z,93377.44
2018-06-04T10:24:26.264Z,93384.70
2018-06-04T10:26:54.011Z,93382.45
2018-06-04T10:29:21.739Z,93381.50
2018-06-04T10:31:49.417Z,93384.23
2018-06-04T10:34:17.134Z,93374.11
2018-06-04T10:36:44.805Z,93382.88
2018-06-04T10:39:12.549Z,93384.00
2018-06-04T10:41:40.278Z,93377.02
2018-06-04T10:44:07.972Z,93376.33
2018-06-04T10:46:35.685Z,93364.12
2018-06-04T10:49:03.392Z,93366.72
2018-06-04T10:51:31.089Z,93374.95
2018-06-04T10:53:58.848Z,93366.38
2018-06-04T10:56:26.502Z,93362.98
2018-06-04T10:58:54.268Z,93357.52
2018-06-04T11:01:21.956Z,93356.09
2018-06-04T11:03:49.672Z,93358.98
2018-06-04T11:06:17.439Z,93358.36
2018-06-04T14:17:36.062Z,93196.42
2018-06-04T14:20:03.780Z,93183.14
2018-06-04T14:22:31.402Z,93171.06
2018-06-04T14:24:59.126Z,93171.57
2018-06-04T14:27:26.864Z,93172.72
2018-06-04T14:29:54.542Z,93166.28
2018-06-04T14:32:22.294Z,93177.19
2018-06-04T14:34:49.999Z,93165.72
2018-06-04T14:37:17.693Z,93172.88
2018-06-04T14:39:45.423Z,93169.61
2018-06-04T14:42:13.130Z,93167.80
2018-06-04T14:44:40.904Z,93164.23
2018-06-04T14:47:08.614Z,93167.55
2018-06-04T14:49:36.310Z,93170.39
2018-06-04T14:52:04.026Z,93162.17
2018-06-04T14:54:31.730Z,93165.47
2018-06-04T14:56:59.455Z,93158.13
2018-06-04T14:59:27.168Z,93162.42
2018-06-04T15:01:54.879Z,93165.83
2018-06-04T15:04:22.670Z,93170.25
2018-06-04T15:06:50.359Z,93169.31
2018-06-04T15:09:18.059Z,93164.05
2018-06-04T15:11:45.766Z,93175.81
2018-06-04T15:14:13.476Z,93171.64
2018-06-04T15:16:41.162Z,93184.18
2018-06-04T15:19:08.831Z,93179.19
2018-06-04T15:21:36.526Z,93181.09
2018-06-04T15:24:04.316Z,93163.11
2018-06-04T15:26:32.036Z,93169.09
2018-06-04T15:28:59.714Z,93160.03
2018-06-04T15:31:27.422Z,93170.56
2018-06-04T15:33:55.203Z,93154.05
2018-06-04T15:36:22.933Z,93152.59
2018-06-04T15:38:50.646Z,93139.27
2018-06-04T15:41:18.397Z,93151.84
2018-06-04T15:43:46.120Z,93138.34
2018-06-04T15:46:13.776Z,93142.13
2018-06-04T15:48:41.469Z,93142.06
2018-06-04T15:51:09.173Z,93134.86
2018-06-04T15:53:36.871Z,93137.98
2018-06-04T15:56:04.672Z,93131.67
2018-06-04T15:58:32.383Z,93138.65
2018-06-04T16:01:00.104Z,93143.18
2018-06-04T16:03:27.855Z,93142.15
2018-06-04T16:05:55.547Z,93143.56
2018-06-04T16:08:23.261Z,93137.44
2018-06-04T16:10:51.064Z,93150.83
2018-06-04T16:13:18.821Z,93145.02
2018-06-04T16:15:46.619Z,93140.38
2018-06-04T16:18:14.340Z,93140.50
2018-06-04T16:20:42.050Z,93141.83
2018-06-04T16:23:09.653Z,93139.94
2018-06-04T16:25:37.359Z,93129.86
2018-06-04T16:28:05.047Z,93143.77
2018-06-04T16:30:32.747Z,93136.75
2018-06-04T16:33:00.455Z,93131.09
2018-06-04T16:35:28.166Z,93139.97
2018-06-04T16:37:55.882Z,93140.73
2018-06-04T16:40:23.611Z,93142.16
2018-06-04T16:42:51.391Z,93146.72
2018-06-04T16:45:19.112Z,93146.45
2018-06-04T16:47:46.841Z,93150.86
2018-06-04T16:50:14.525Z,93147.33
2018-06-04T16:52:42.184Z,93147.08
2018-06-04T16:55:09.918Z,93154.34
2018-06-04T16:57:37.597Z,93140.95
2018-06-04T17:00:05.374Z,93134.69
2018-06-04T17:02:33.144Z,93141.33
2018-06-04T17:05:00.906Z,93134.73
2018-06-04T17:07:28.622Z,93130.83
2018-06-04T17:09:56.342Z,93130.57
2018-06-04T17:12:24.055Z,93128.02
2018-06-04T17:14:51.746Z,93124.95
2018-06-04T17:17:19.463Z,93124.23
2018-06-04T17:19:47.174Z,93122.13
2018-06-04T17:22:14.893Z,93124.48
2018-06-04T17:24:42.592Z,93125.08
2018-06-04T17:27:10.373Z,93122.88
2018-06-04T17:29:38.175Z,93127.89
2018-06-04T17:32:05.931Z,93123.48
2018-06-04T17:34:33.645Z,93125.20
2018-06-04T17:37:01.485Z,93122.25
2018-06-04T17:39:29.299Z,93121.03
2018-06-04T17:41:57.021Z,93119.61
2018-06-04T17:44:24.731Z,93122.79
2018-06-04T17:46:52.528Z,93127.48
2018-06-04T17:49:20.233Z,93124.55
2018-06-04T17:51:47.978Z,93133.91
2018-06-04T17:54:15.713Z,93133.61
2018-06-04T17:56:43.474Z,93142.09
2018-06-04T17:59:11.161Z,93148.53
2018-06-04T18:01:38.824Z,93151.61
2018-06-04T18:04:06.615Z,93154.23
2018-06-04T18:06:34.380Z,93148.39
2018-06-04T18:09:02.193Z,93148.39
2018-06-04T18:11:29.981Z,93150.21
2018-06-04T18:13:57.703Z,93154.13
2018-06-04T18:16:25.427Z,93160.66
2018-06-04T18:18:53.726Z,93165.08
2018-06-04T18:21:21.532Z,93172.05
2018-06-04T18:23:49.228Z,93170.64
2018-06-04T18:26:17.037Z,93177.13
2018-06-04T18:28:44.768Z,93185.13
2018-06-04T18:31:12.512Z,93189.48
2018-06-04T18:33:40.298Z,93189.98
2018-06-04T18:36:08.980Z,93193.76
2018-06-04T18:38:36.695Z,93196.49
2018-06-04T18:41:04.435Z,93194.31
2018-06-04T18:43:32.205Z,93195.55
2018-06-04T18:45:59.928Z,93196.03
2018-06-04T18:48:27.622Z,93197.80
2018-06-04T18:50:55.440Z,93197.47
2018-06-04T18:53:23.202Z,93199.42
2018-06-04T18:55:50.890Z,93205.00
2018-06-04T18:58:18.685Z,93212.86
2018-06-04T19:00:46.469Z,93213.56
2018-06-04T19:03:14.214Z,93215.50
2018-06-04T19:05:41.967Z,93217.00
2018-06-04T19:08:09.666Z,93223.88
2018-06-04T19:10:37.382Z,93227.82
2018-06-04T19:13:05.093Z,93228.27
2018-06-04T19:15:32.766Z,93231.76
2018-06-04T19:18:00.493Z,93235.13
2018-06-04T19:20:28.241Z,93238.89
2018-06-04T19:22:55.927Z,93240.08
2018-06-04T19:25:23.619Z,93240.63
2018-06-04T19:27:51.316Z,93238.44
2018-06-04T19:30:19.014Z,93238.72
2018-06-04T19:32:46.775Z,93238.38
2018-06-04T19:35:14.467Z,93250.81
2018-06-04T19:37:42.224Z,93255.35
2018-06-04T19:40:09.898Z,93252.41
2018-06-04T19:42:37.598Z,93255.72
2018-06-04T19:45:05.304Z,93254.72
2018-06-04T19:47:33.007Z,93252.55
2018-06-04T19:50:00.712Z,93260.70
2018-06-04T19:52:28.350Z,93264.09
2018-06-04T19:54:56.068Z,93262.30
2018-06-04T19:57:23.712Z,93266.98
2018-06-04T19:59:51.482Z,93271.13
2018-06-04T20:02:19.259Z,93269.23
2018-06-04T20:04:46.895Z,93276.53
2018-06-04T20:07:14.637Z,93275.32
2018-06-04T20:09:42.327Z,93285.77
2018-06-04T20:12:09.948Z,93284.80
2018-06-04T20:14:37.642Z,93291.78
2018-06-04T20:17:05.362Z,93286.75
2018-06-04T20:19:32.997Z,93286.59
2018-06-04T20:22:00.673Z,93291.47
2018-06-04T20:24:28.335Z,93292.84
2018-06-04T20:26:56.007Z,93288.90
2018-06-04T20:29:23.656Z,93298.52
2018-06-04T20:31:51.379Z,93297.78
2018-06-04T20:34:19.186Z,93296.45
2018-06-04T20:36:46.838Z,93298.65
2018-06-04T20:39:14.526Z,93310.41
2018-06-04T20:41:42.206Z,93307.82
2018-06-04T20:44:09.892Z,93314.28
2018-06-04T20:46:37.563Z,93321.35
2018-06-04T20:49:05.279Z,93322.42
2018-06-04T20:51:32.988Z,93320.28
2018-06-04T20:54:00.649Z,93322.76
2018-06-04T20:56:28.377Z,93319.02
2018-06-04T20:58:56.144Z,93322.49
2018-06-04T21:01:23.947Z,93323.83
2018-06-04T21:03:51.599Z,93323.59
2018-06-04T21:06:19.294Z,93326.34
2018-06-04T21:08:47.030Z,93332.77
2018-06-04T21:11:14.799Z,93329.06
2018-06-04T21:13:42.573Z,93323.22
2018-06-04T21:16:10.303Z,93328.88
2018-06-04T21:18:37.964Z,93329.70
2018-06-04T21:21:05.627Z,93332.90
2018-06-04T21:23:33.288Z,93332.90
2018-06-04T21:26:00.945Z,93327.07
2018-06-04T21:28:28.874Z,93323.84
2018-06-04T21:30:56.526Z,93319.06
2018-06-04T21:33:24.254Z,93318.53
2018-06-04T21:35:52.038Z,93321.75
2018-06-04T21:38:19.725Z,93323.62
2018-06-04T21:40:47.361Z,93320.69
2018-06-04T21:43:15.084Z,93323.88
2018-06-04T21:45:42.796Z,93321.29
2018-06-04T21:48:10.530Z,93319.69
2018-06-04T21:50:38.156Z,93314.34
2018-06-04T21:53:05.822Z,93311.17
2018-06-04T21:55:33.513Z,93311.89
2018-06-04T21:58:01.197Z,93310.06
2018-06-04T22:00:28.862Z,93307.18
2018-06-04T22:02:56.542Z,93305.59
2018-06-04T22:05:24.217Z,93311.22
2018-06-04T22:07:51.935Z,93309.61
2018-06-04T22:10:19.662Z,93303.20
2018-06-04T22:12:47.383Z,93297.30
2018-06-04T22:15:15.007Z,93304.22
2018-06-04T22:17:42.668Z,93305.27
2018-06-04T22:20:10.328Z,93307.38
2018-06-04T22:22:37.996Z,93312.14
2018-06-04T22:25:05.690Z,93311.86
2018-06-04T22:27:33.362Z,93310.00
2018-06-04T22:30:01.058Z,93310.22
2018-06-04T22:32:28.823Z,93314.20
2018-06-04T22:34:56.576Z,93308.87
2018-06-04T22:37:24.277Z,93311.53
2018-06-04T22:39:52.009Z,93309.44
2018-06-04T22:42:19.864Z,93319.96
2018-06-04T22:44:47.583Z,93317.27
2018-06-04T22:47:15.251Z,93312.50
2018-06-04T22:49:42.973Z,93306.75
2018-06-04T22:52:10.649Z,93305.66
2018-06-04T22:54:38.375Z,93309.42
2018-06-04T22:57:06.014Z,93298.25
2018-06-04T22:59:33.710Z,93295.50
2018-06-04T23:02:01.424Z,93292.88
2018-06-04T23:04:29.193Z,93296.88
2018-06-04T23:06:56.900Z,93292.23
2018-06-04T23:09:24.620Z,93298.83
2018-06-04T23:11:52.339Z,93291.11
2018-06-04T23:14:20.162Z,93295.08
2018-06-04T23:16:47.851Z,93298.59
2018-06-04T23:19:15.605Z,93299.62
2018-06-04T23:21:43.294Z,93290.56
2018-06-04T23:24:10.945Z,93295.61
2018-06-04T23:26:38.610Z,93298.48
2018-06-04T23:29:06.307Z,93293.70
2018-06-04T23:31:33.970Z,93289.36
2018-06-04T23:34:01.672Z,93291.83
2018-06-04T23:36:29.314Z,93285.92
2018-06-04T23:38:57.038Z,93287.76
2018-06-04T23:41:24.755Z,93283.75
2018-06-04T23:43:52.444Z,93281.83
2018-06-04T23:46:20.135Z,93273.80
2018-06-04T23:48:47.851Z,93277.02
2018-06-04T23:51:15.550Z,93272.45
2018-06-04T23:53:43.261Z,93263.73
2018-06-04T23:56:10.916Z,93265.83
2018-06-04T23:58:38.603Z,93264.41
